sensor_id;sensor_type;location;lat;lon;timestamp;temperature;humidity
58993;DHT22;44782;0.000;0.000;2022-11-13T00:02:02;15.80;65.50
58993;DHT22;44782;0.000;0.000;2022-11-13T00:04:18;15.80;65.50
58993;DHT22;44782;0.000;0.000;2022-11-13T00:06:33;15.80;65.50
58993;DHT22;44782;0.000;0.000;2022-11-13T00:08:52;15.70;65.40
58993;DHT22;44782;0.000;0.000;2022-11-13T00:11:17;15.70;65.30
58993;DHT22;44782;0.000;0.000;2022-11-13T00:13:34;15.70;65.20
58993;DHT22;44782;0.000;0.000;2022-11-13T00:16:01;15.70;65.30
58993;DHT22;44782;0.000;0.000;2022-11-13T00:18:17;15.70;65.10
58993;DHT22;44782;0.000;0.000;2022-11-13T00:20:32;15.70;65.30
58993;DHT22;44782;0.000;0.000;2022-11-13T00:22:48;15.70;65.30
58993;DHT22;44782;0.000;0.000;2022-11-13T00:25:04;15.70;65.30
58993;DHT22;44782;0.000;0.000;2022-11-13T00:27:19;15.70;65.20
58993;DHT22;44782;0.000;0.000;2022-11-13T00:29:35;15.70;65.30
58993;DHT22;44782;0.000;0.000;2022-11-13T00:31:51;15.70;65.30
58993;DHT22;44782;0.000;0.000;2022-11-13T00:34:07;15.70;65.20
58993;DHT22;44782;0.000;0.000;2022-11-13T00:36:24;15.70;65.20
58993;DHT22;44782;0.000;0.000;2022-11-13T00:38:40;15.70;65.20
58993;DHT22;44782;0.000;0.000;2022-11-13T00:40:56;15.60;65.20
58993;DHT22;44782;0.000;0.000;2022-11-13T00:43:12;15.60;65.10
58993;DHT22;44782;0.000;0.000;2022-11-13T00:45:28;15.60;65.20
58993;DHT22;44782;0.000;0.000;2022-11-13T00:47:43;15.60;65.20
58993;DHT22;44782;0.000;0.000;2022-11-13T00:49:59;15.60;65.80
58993;DHT22;44782;0.000;0.000;2022-11-13T00:52:14;15.60;65.10
58993;DHT22;44782;0.000;0.000;2022-11-13T00:54:30;15.60;65.10
58993;DHT22;44782;0.000;0.000;2022-11-13T00:56:46;15.60;65.10
58993;DHT22;44782;0.000;0.000;2022-11-13T00:59:01;15.60;65.10
58993;DHT22;44782;0.000;0.000;2022-11-13T01:01:18;15.60;65.10
58993;DHT22;44782;0.000;0.000;2022-11-13T01:03:35;15.60;65.00
58993;DHT22;44782;0.000;0.000;2022-11-13T01:05:51;15.60;65.70
58993;DHT22;44782;0.000;0.000;2022-11-13T01:08:07;15.60;65.00
58993;DHT22;44782;0.000;0.000;2022-11-13T01:10:23;15.60;65.00
58993;DHT22;44782;0.000;0.000;2022-11-13T01:12:39;15.60;65.00
58993;DHT22;44782;0.000;0.000;2022-11-13T01:14:54;15.60;64.90
58993;DHT22;44782;0.000;0.000;2022-11-13T01:17:10;15.70;65.00
58993;DHT22;44782;0.000;0.000;2022-11-13T01:19:25;15.60;64.80
58993;DHT22;44782;0.000;0.000;2022-11-13T01:21:41;15.70;65.00
58993;DHT22;44782;0.000;0.000;2022-11-13T01:23:57;15.70;64.80
58993;DHT22;44782;0.000;0.000;2022-11-13T01:26:22;15.70;64.80
58993;DHT22;44782;0.000;0.000;2022-11-13T01:28:38;15.70;64.60
58993;DHT22;44782;0.000;0.000;2022-11-13T01:30:54;15.70;64.70
58993;DHT22;44782;0.000;0.000;2022-11-13T01:33:10;15.70;64.70
58993;DHT22;44782;0.000;0.000;2022-11-13T01:35:25;15.70;64.70
58993;DHT22;44782;0.000;0.000;2022-11-13T01:37:41;15.70;64.70
58993;DHT22;44782;0.000;0.000;2022-11-13T01:39:56;15.70;64.60
58993;DHT22;44782;0.000;0.000;2022-11-13T01:42:12;15.70;64.60
58993;DHT22;44782;0.000;0.000;2022-11-13T01:44:46;15.70;64.60
58993;DHT22;44782;0.000;0.000;2022-11-13T01:47:02;15.70;64.30
58993;DHT22;44782;0.000;0.000;2022-11-13T01:49:29;15.70;65.30
58993;DHT22;44782;0.000;0.000;2022-11-13T01:51:58;15.70;64.40
58993;DHT22;44782;0.000;0.000;2022-11-13T01:54:18;15.80;64.30
58993;DHT22;44782;0.000;0.000;2022-11-13T01:56:35;15.80;64.40
58993;DHT22;44782;0.000;0.000;2022-11-13T01:59:00;15.80;64.40
58993;DHT22;44782;0.000;0.000;2022-11-13T02:01:18;15.80;64.20
58993;DHT22;44782;0.000;0.000;2022-11-13T02:03:34;15.80;64.30
58993;DHT22;44782;0.000;0.000;2022-11-13T02:05:50;15.80;64.20
58993;DHT22;44782;0.000;0.000;2022-11-13T02:08:07;15.80;64.20
58993;DHT22;44782;0.000;0.000;2022-11-13T02:10:22;15.90;64.20
58993;DHT22;44782;0.000;0.000;2022-11-13T02:12:41;15.90;64.10
58993;DHT22;44782;0.000;0.000;2022-11-13T02:14:59;15.90;64.00
58993;DHT22;44782;0.000;0.000;2022-11-13T02:17:19;15.90;64.00
58993;DHT22;44782;0.000;0.000;2022-11-13T02:19:39;15.90;63.90
58993;DHT22;44782;0.000;0.000;2022-11-13T02:24:42;15.90;63.60
58993;DHT22;44782;0.000;0.000;2022-11-13T02:27:02;15.90;63.80
58993;DHT22;44782;0.000;0.000;2022-11-13T02:29:18;16.00;63.80
58993;DHT22;44782;0.000;0.000;2022-11-13T02:31:34;16.00;63.80
58993;DHT22;44782;0.000;0.000;2022-11-13T02:33:50;16.00;63.70
58993;DHT22;44782;0.000;0.000;2022-11-13T02:36:07;16.00;63.80
58993;DHT22;44782;0.000;0.000;2022-11-13T02:38:24;16.00;63.70
58993;DHT22;44782;0.000;0.000;2022-11-13T02:40:39;16.00;63.70
58993;DHT22;44782;0.000;0.000;2022-11-13T02:42:55;16.00;63.60
58993;DHT22;44782;0.000;0.000;2022-11-13T02:45:11;16.00;63.60
58993;DHT22;44782;0.000;0.000;2022-11-13T02:47:27;16.00;63.60
58993;DHT22;44782;0.000;0.000;2022-11-13T02:49:42;16.00;63.60
58993;DHT22;44782;0.000;0.000;2022-11-13T02:51:58;16.10;63.60
58993;DHT22;44782;0.000;0.000;2022-11-13T02:54:14;16.00;63.50
58993;DHT22;44782;0.000;0.000;2022-11-13T02:56:29;16.00;63.40
58993;DHT22;44782;0.000;0.000;2022-11-13T02:58:45;16.00;63.40
58993;DHT22;44782;0.000;0.000;2022-11-13T03:01:02;16.00;63.40
58993;DHT22;44782;0.000;0.000;2022-11-13T03:03:18;16.00;63.40
58993;DHT22;44782;0.000;0.000;2022-11-13T03:05:33;16.00;64.20
58993;DHT22;44782;0.000;0.000;2022-11-13T03:07:49;16.00;63.40
58993;DHT22;44782;0.000;0.000;2022-11-13T03:10:05;16.00;63.40
58993;DHT22;44782;0.000;0.000;2022-11-13T03:12:21;16.00;63.40
58993;DHT22;44782;0.000;0.000;2022-11-13T03:14:36;16.00;63.40
58993;DHT22;44782;0.000;0.000;2022-11-13T03:16:52;16.00;63.40
58993;DHT22;44782;0.000;0.000;2022-11-13T03:19:08;16.00;63.40
58993;DHT22;44782;0.000;0.000;2022-11-13T03:21:23;16.00;63.30
58993;DHT22;44782;0.000;0.000;2022-11-13T03:23:40;16.00;63.30
58993;DHT22;44782;0.000;0.000;2022-11-13T03:25:56;16.00;63.30
58993;DHT22;44782;0.000;0.000;2022-11-13T03:28:16;15.90;63.30
58993;DHT22;44782;0.000;0.000;2022-11-13T03:30:31;15.90;63.30
58993;DHT22;44782;0.000;0.000;2022-11-13T03:32:47;15.90;63.30
58993;DHT22;44782;0.000;0.000;2022-11-13T03:35:03;15.90;63.20
58993;DHT22;44782;0.000;0.000;2022-11-13T03:37:19;15.90;63.20
58993;DHT22;44782;0.000;0.000;2022-11-13T03:39:35;15.90;63.20
58993;DHT22;44782;0.000;0.000;2022-11-13T03:41:51;15.90;63.30
58993;DHT22;44782;0.000;0.000;2022-11-13T03:44:06;15.90;63.20
58993;DHT22;44782;0.000;0.000;2022-11-13T03:46:22;15.90;63.20
58993;DHT22;44782;0.000;0.000;2022-11-13T03:48:38;15.90;63.20
58993;DHT22;44782;0.000;0.000;2022-11-13T03:50:54;15.90;63.30
58993;DHT22;44782;0.000;0.000;2022-11-13T03:53:10;15.90;63.20
58993;DHT22;44782;0.000;0.000;2022-11-13T03:55:25;15.90;63.20
58993;DHT22;44782;0.000;0.000;2022-11-13T03:57:41;15.90;63.20
58993;DHT22;44782;0.000;0.000;2022-11-13T03:59:56;15.90;63.20
58993;DHT22;44782;0.000;0.000;2022-11-13T04:02:12;15.80;63.10
58993;DHT22;44782;0.000;0.000;2022-11-13T04:04:28;15.80;63.20
58993;DHT22;44782;0.000;0.000;2022-11-13T04:06:43;15.80;63.20
58993;DHT22;44782;0.000;0.000;2022-11-13T04:08:59;15.80;63.10
58993;DHT22;44782;0.000;0.000;2022-11-13T04:11:15;15.80;63.10
58993;DHT22;44782;0.000;0.000;2022-11-13T04:13:30;15.80;63.10
58993;DHT22;44782;0.000;0.000;2022-11-13T04:15:46;15.80;63.20
58993;DHT22;44782;0.000;0.000;2022-11-13T04:18:02;15.80;63.20
58993;DHT22;44782;0.000;0.000;2022-11-13T04:20:18;15.70;63.10
58993;DHT22;44782;0.000;0.000;2022-11-13T04:22:33;15.80;63.20
58993;DHT22;44782;0.000;0.000;2022-11-13T04:24:49;15.80;63.10
58993;DHT22;44782;0.000;0.000;2022-11-13T04:27:04;15.70;63.10
58993;DHT22;44782;0.000;0.000;2022-11-13T04:29:20;15.70;63.10
58993;DHT22;44782;0.000;0.000;2022-11-13T04:31:36;15.70;63.20
58993;DHT22;44782;0.000;0.000;2022-11-13T04:33:51;15.70;63.10
58993;DHT22;44782;0.000;0.000;2022-11-13T04:36:07;15.70;63.10
58993;DHT22;44782;0.000;0.000;2022-11-13T04:38:23;15.70;63.10
58993;DHT22;44782;0.000;0.000;2022-11-13T04:40:39;15.70;63.10
58993;DHT22;44782;0.000;0.000;2022-11-13T04:42:55;15.70;63.10
58993;DHT22;44782;0.000;0.000;2022-11-13T04:45:10;15.70;63.20
58993;DHT22;44782;0.000;0.000;2022-11-13T04:47:26;15.60;63.10
58993;DHT22;44782;0.000;0.000;2022-11-13T04:49:41;15.60;63.20
58993;DHT22;44782;0.000;0.000;2022-11-13T04:51:57;15.60;63.10
58993;DHT22;44782;0.000;0.000;2022-11-13T04:54:12;15.60;63.20
58993;DHT22;44782;0.000;0.000;2022-11-13T04:56:28;15.60;63.20
58993;DHT22;44782;0.000;0.000;2022-11-13T04:58:44;15.60;63.10
58993;DHT22;44782;0.000;0.000;2022-11-13T05:00:59;15.60;63.10
58993;DHT22;44782;0.000;0.000;2022-11-13T05:03:15;15.60;63.20
58993;DHT22;44782;0.000;0.000;2022-11-13T05:05:31;15.60;63.20
58993;DHT22;44782;0.000;0.000;2022-11-13T05:07:46;15.60;63.20
58993;DHT22;44782;0.000;0.000;2022-11-13T05:10:02;15.60;63.20
58993;DHT22;44782;0.000;0.000;2022-11-13T05:12:18;15.60;63.90
58993;DHT22;44782;0.000;0.000;2022-11-13T05:14:38;15.60;63.20
58993;DHT22;44782;0.000;0.000;2022-11-13T05:16:54;15.60;63.10
58993;DHT22;44782;0.000;0.000;2022-11-13T05:19:10;15.60;63.20
58993;DHT22;44782;0.000;0.000;2022-11-13T05:21:25;15.60;63.20
58993;DHT22;44782;0.000;0.000;2022-11-13T05:23:41;15.60;63.20
58993;DHT22;44782;0.000;0.000;2022-11-13T05:26:08;15.60;63.20
58993;DHT22;44782;0.000;0.000;2022-11-13T05:28:25;15.60;63.10
58993;DHT22;44782;0.000;0.000;2022-11-13T05:30:41;15.60;63.20
58993;DHT22;44782;0.000;0.000;2022-11-13T05:32:56;15.60;63.10
58993;DHT22;44782;0.000;0.000;2022-11-13T05:35:12;15.60;63.10
58993;DHT22;44782;0.000;0.000;2022-11-13T05:37:28;15.60;63.10
58993;DHT22;44782;0.000;0.000;2022-11-13T05:39:44;15.60;63.00
58993;DHT22;44782;0.000;0.000;2022-11-13T05:41:59;15.70;63.10
58993;DHT22;44782;0.000;0.000;2022-11-13T05:44:15;15.70;63.00
58993;DHT22;44782;0.000;0.000;2022-11-13T05:46:30;15.70;63.00
58993;DHT22;44782;0.000;0.000;2022-11-13T05:48:47;15.70;63.00
58993;DHT22;44782;0.000;0.000;2022-11-13T05:51:08;15.70;63.00
58993;DHT22;44782;0.000;0.000;2022-11-13T05:53:23;15.70;62.90
58993;DHT22;44782;0.000;0.000;2022-11-13T05:55:39;15.70;62.90
58993;DHT22;44782;0.000;0.000;2022-11-13T05:57:54;15.70;62.90
58993;DHT22;44782;0.000;0.000;2022-11-13T06:00:10;15.80;62.90
58993;DHT22;44782;0.000;0.000;2022-11-13T06:02:26;15.80;62.80
58993;DHT22;44782;0.000;0.000;2022-11-13T06:04:42;15.80;62.80
58993;DHT22;44782;0.000;0.000;2022-11-13T06:06:57;15.80;62.80
58993;DHT22;44782;0.000;0.000;2022-11-13T06:09:14;15.80;62.70
58993;DHT22;44782;0.000;0.000;2022-11-13T06:11:31;15.80;62.70
58993;DHT22;44782;0.000;0.000;2022-11-13T06:13:48;15.80;62.70
58993;DHT22;44782;0.000;0.000;2022-11-13T06:16:06;15.90;62.70
58993;DHT22;44782;0.000;0.000;2022-11-13T06:18:23;15.90;62.60
58993;DHT22;44782;0.000;0.000;2022-11-13T06:20:38;15.90;62.70
58993;DHT22;44782;0.000;0.000;2022-11-13T06:22:54;15.90;62.50
58993;DHT22;44782;0.000;0.000;2022-11-13T06:25:10;15.90;62.50
58993;DHT22;44782;0.000;0.000;2022-11-13T06:27:26;15.90;62.50
58993;DHT22;44782;0.000;0.000;2022-11-13T06:29:42;15.90;62.50
58993;DHT22;44782;0.000;0.000;2022-11-13T06:31:57;15.90;62.50
58993;DHT22;44782;0.000;0.000;2022-11-13T06:34:13;15.90;62.40
58993;DHT22;44782;0.000;0.000;2022-11-13T06:36:31;15.90;62.40
58993;DHT22;44782;0.000;0.000;2022-11-13T06:38:47;16.00;62.30
58993;DHT22;44782;0.000;0.000;2022-11-13T06:41:03;16.00;62.30
58993;DHT22;44782;0.000;0.000;2022-11-13T06:43:19;16.00;62.30
58993;DHT22;44782;0.000;0.000;2022-11-13T06:45:35;16.00;62.30
58993;DHT22;44782;0.000;0.000;2022-11-13T06:47:52;16.00;62.20
58993;DHT22;44782;0.000;0.000;2022-11-13T06:50:08;16.00;62.20
58993;DHT22;44782;0.000;0.000;2022-11-13T06:52:24;16.10;62.20
58993;DHT22;44782;0.000;0.000;2022-11-13T06:54:40;16.00;62.10
58993;DHT22;44782;0.000;0.000;2022-11-13T06:56:55;16.10;62.20
58993;DHT22;44782;0.000;0.000;2022-11-13T06:59:11;16.00;62.10
58993;DHT22;44782;0.000;0.000;2022-11-13T07:01:27;16.10;62.00
58993;DHT22;44782;0.000;0.000;2022-11-13T07:03:43;16.10;62.00
58993;DHT22;44782;0.000;0.000;2022-11-13T07:06:03;16.10;62.00
58993;DHT22;44782;0.000;0.000;2022-11-13T07:08:19;16.10;61.90
58993;DHT22;44782;0.000;0.000;2022-11-13T07:10:34;16.10;61.90
58993;DHT22;44782;0.000;0.000;2022-11-13T07:12:50;16.10;61.90
58993;DHT22;44782;0.000;0.000;2022-11-13T07:15:06;16.10;61.90
58993;DHT22;44782;0.000;0.000;2022-11-13T07:17:21;16.20;61.90
58993;DHT22;44782;0.000;0.000;2022-11-13T07:19:37;16.20;61.90
58993;DHT22;44782;0.000;0.000;2022-11-13T07:21:53;16.20;61.80
58993;DHT22;44782;0.000;0.000;2022-11-13T07:24:08;16.20;61.80
58993;DHT22;44782;0.000;0.000;2022-11-13T07:26:24;16.20;61.80
58993;DHT22;44782;0.000;0.000;2022-11-13T07:28:39;16.20;61.80
58993;DHT22;44782;0.000;0.000;2022-11-13T07:30:58;16.20;61.70
58993;DHT22;44782;0.000;0.000;2022-11-13T07:33:14;16.20;61.60
58993;DHT22;44782;0.000;0.000;2022-11-13T07:35:30;16.20;61.70
58993;DHT22;44782;0.000;0.000;2022-11-13T07:37:46;16.20;61.70
58993;DHT22;44782;0.000;0.000;2022-11-13T07:40:02;16.20;61.50
58993;DHT22;44782;0.000;0.000;2022-11-13T07:42:18;16.20;61.50
58993;DHT22;44782;0.000;0.000;2022-11-13T07:44:33;16.20;61.50
58993;DHT22;44782;0.000;0.000;2022-11-13T07:46:49;16.20;61.40
58993;DHT22;44782;0.000;0.000;2022-11-13T07:49:05;16.20;61.50
58993;DHT22;44782;0.000;0.000;2022-11-13T07:51:20;16.30;61.80
58993;DHT22;44782;0.000;0.000;2022-11-13T07:53:36;16.30;62.00
58993;DHT22;44782;0.000;0.000;2022-11-13T07:55:53;16.30;62.20
58993;DHT22;44782;0.000;0.000;2022-11-13T07:58:09;16.40;62.40
58993;DHT22;44782;0.000;0.000;2022-11-13T08:00:29;16.40;62.40
58993;DHT22;44782;0.000;0.000;2022-11-13T08:02:45;16.40;62.80
58993;DHT22;44782;0.000;0.000;2022-11-13T08:05:02;16.40;62.80
58993;DHT22;44782;0.000;0.000;2022-11-13T08:07:18;16.50;63.00
58993;DHT22;44782;0.000;0.000;2022-11-13T08:09:33;16.50;62.90
58993;DHT22;44782;0.000;0.000;2022-11-13T08:11:49;16.50;62.90
58993;DHT22;44782;0.000;0.000;2022-11-13T08:14:04;16.50;62.80
58993;DHT22;44782;0.000;0.000;2022-11-13T08:16:20;16.50;62.80
58993;DHT22;44782;0.000;0.000;2022-11-13T08:18:37;16.50;62.70
58993;DHT22;44782;0.000;0.000;2022-11-13T08:20:53;16.50;62.60
58993;DHT22;44782;0.000;0.000;2022-11-13T08:23:09;16.50;62.60
58993;DHT22;44782;0.000;0.000;2022-11-13T08:25:25;16.60;62.50
58993;DHT22;44782;0.000;0.000;2022-11-13T08:27:40;16.60;62.50
58993;DHT22;44782;0.000;0.000;2022-11-13T08:29:56;16.60;62.40
58993;DHT22;44782;0.000;0.000;2022-11-13T08:32:16;16.60;62.50
58993;DHT22;44782;0.000;0.000;2022-11-13T08:34:33;16.60;62.50
58993;DHT22;44782;0.000;0.000;2022-11-13T08:36:48;16.60;62.60
58993;DHT22;44782;0.000;0.000;2022-11-13T08:39:04;16.60;62.50
58993;DHT22;44782;0.000;0.000;2022-11-13T08:41:20;16.60;62.50
58993;DHT22;44782;0.000;0.000;2022-11-13T08:43:35;16.60;62.30
58993;DHT22;44782;0.000;0.000;2022-11-13T08:45:51;16.70;62.40
58993;DHT22;44782;0.000;0.000;2022-11-13T08:48:07;16.70;62.30
58993;DHT22;44782;0.000;0.000;2022-11-13T08:50:23;16.70;63.00
58993;DHT22;44782;0.000;0.000;2022-11-13T08:52:39;16.70;62.40
58993;DHT22;44782;0.000;0.000;2022-11-13T08:54:54;16.70;62.40
58993;DHT22;44782;0.000;0.000;2022-11-13T08:57:10;16.70;62.40
58993;DHT22;44782;0.000;0.000;2022-11-13T08:59:26;16.70;62.30
58993;DHT22;44782;0.000;0.000;2022-11-13T09:01:41;16.70;62.20
58993;DHT22;44782;0.000;0.000;2022-11-13T09:03:57;16.70;62.30
58993;DHT22;44782;0.000;0.000;2022-11-13T09:06:13;16.70;62.20
58993;DHT22;44782;0.000;0.000;2022-11-13T09:08:29;16.70;62.10
58993;DHT22;44782;0.000;0.000;2022-11-13T09:10:46;16.70;62.10
58993;DHT22;44782;0.000;0.000;2022-11-13T09:13:03;16.70;62.10
58993;DHT22;44782;0.000;0.000;2022-11-13T09:15:19;16.70;62.00
58993;DHT22;44782;0.000;0.000;2022-11-13T09:17:35;16.70;62.10
58993;DHT22;44782;0.000;0.000;2022-11-13T09:19:50;16.70;61.90
58993;DHT22;44782;0.000;0.000;2022-11-13T09:22:06;16.70;61.80
58993;DHT22;44782;0.000;0.000;2022-11-13T09:24:21;16.70;61.80
58993;DHT22;44782;0.000;0.000;2022-11-13T09:26:37;16.70;61.70
58993;DHT22;44782;0.000;0.000;2022-11-13T09:28:53;16.70;61.60
58993;DHT22;44782;0.000;0.000;2022-11-13T09:31:08;16.70;61.60
58993;DHT22;44782;0.000;0.000;2022-11-13T09:33:24;16.70;61.60
58993;DHT22;44782;0.000;0.000;2022-11-13T09:35:40;16.70;61.50
58993;DHT22;44782;0.000;0.000;2022-11-13T09:37:56;16.70;61.60
58993;DHT22;44782;0.000;0.000;2022-11-13T09:40:19;16.70;61.40
58993;DHT22;44782;0.000;0.000;2022-11-13T09:42:40;16.80;61.50
58993;DHT22;44782;0.000;0.000;2022-11-13T09:45:04;16.80;61.50
58993;DHT22;44782;0.000;0.000;2022-11-13T09:47:32;16.80;61.20
58993;DHT22;44782;0.000;0.000;2022-11-13T09:49:55;16.80;61.10
58993;DHT22;44782;0.000;0.000;2022-11-13T09:52:29;16.80;61.10
58993;DHT22;44782;0.000;0.000;2022-11-13T09:54:45;16.80;61.00
58993;DHT22;44782;0.000;0.000;2022-11-13T09:57:19;16.80;61.10
58993;DHT22;44782;0.000;0.000;2022-11-13T10:00:09;16.80;61.10
58993;DHT22;44782;0.000;0.000;2022-11-13T10:07:30;16.70;61.10
58993;DHT22;44782;0.000;0.000;2022-11-13T10:12:31;16.80;61.20
58993;DHT22;44782;0.000;0.000;2022-11-13T10:14:51;16.70;61.20
58993;DHT22;44782;0.000;0.000;2022-11-13T10:17:25;16.70;61.30
58993;DHT22;44782;0.000;0.000;2022-11-13T10:20:01;16.70;61.30
58993;DHT22;44782;0.000;0.000;2022-11-13T10:22:27;16.70;61.50
58993;DHT22;44782;0.000;0.000;2022-11-13T10:24:45;16.70;61.60
58993;DHT22;44782;0.000;0.000;2022-11-13T10:27:08;16.70;61.60
58993;DHT22;44782;0.000;0.000;2022-11-13T10:29:27;16.70;61.70
58993;DHT22;44782;0.000;0.000;2022-11-13T10:31:46;16.70;61.60
58993;DHT22;44782;0.000;0.000;2022-11-13T10:34:02;16.70;61.70
58993;DHT22;44782;0.000;0.000;2022-11-13T10:36:35;16.70;61.70
58993;DHT22;44782;0.000;0.000;2022-11-13T10:38:57;16.70;61.70
58993;DHT22;44782;0.000;0.000;2022-11-13T10:41:16;16.70;61.90
58993;DHT22;44782;0.000;0.000;2022-11-13T10:43:35;16.70;61.90
58993;DHT22;44782;0.000;0.000;2022-11-13T10:45:57;16.70;61.80
58993;DHT22;44782;0.000;0.000;2022-11-13T10:48:35;16.70;61.90
58993;DHT22;44782;0.000;0.000;2022-11-13T10:50:57;16.70;62.00
58993;DHT22;44782;0.000;0.000;2022-11-13T10:53:18;16.70;62.10
58993;DHT22;44782;0.000;0.000;2022-11-13T10:57:55;16.60;62.30
58993;DHT22;44782;0.000;0.000;2022-11-13T11:00:39;16.60;62.60
58993;DHT22;44782;0.000;0.000;2022-11-13T11:02:55;16.70;62.90
58993;DHT22;44782;0.000;0.000;2022-11-13T11:05:22;16.60;62.60
58993;DHT22;44782;0.000;0.000;2022-11-13T11:10:18;16.60;62.60
58993;DHT22;44782;0.000;0.000;2022-11-13T11:12:34;16.60;62.60
58993;DHT22;44782;0.000;0.000;2022-11-13T11:14:56;16.70;62.60
58993;DHT22;44782;0.000;0.000;2022-11-13T11:17:17;16.70;62.70
58993;DHT22;44782;0.000;0.000;2022-11-13T11:19:37;16.60;62.60
58993;DHT22;44782;0.000;0.000;2022-11-13T11:22:02;16.60;62.50
58993;DHT22;44782;0.000;0.000;2022-11-13T11:24:31;16.60;63.20
58993;DHT22;44782;0.000;0.000;2022-11-13T11:27:15;16.60;62.50
58993;DHT22;44782;0.000;0.000;2022-11-13T11:30:05;16.60;62.30
58993;DHT22;44782;0.000;0.000;2022-11-13T11:35:16;16.60;62.50
58993;DHT22;44782;0.000;0.000;2022-11-13T11:37:40;16.60;62.60
58993;DHT22;44782;0.000;0.000;2022-11-13T11:43:13;16.60;62.60
58993;DHT22;44782;0.000;0.000;2022-11-13T11:45:36;16.60;62.70
58993;DHT22;44782;0.000;0.000;2022-11-13T11:47:54;16.50;62.60
58993;DHT22;44782;0.000;0.000;2022-11-13T11:50:14;16.50;62.60
58993;DHT22;44782;0.000;0.000;2022-11-13T12:00:19;16.60;62.50
58993;DHT22;44782;0.000;0.000;2022-11-13T12:03:00;16.50;62.60
58993;DHT22;44782;0.000;0.000;2022-11-13T12:10:55;16.50;62.60
58993;DHT22;44782;0.000;0.000;2022-11-13T12:13:30;16.50;62.90
58993;DHT22;44782;0.000;0.000;2022-11-13T12:18:41;16.40;63.00
58993;DHT22;44782;0.000;0.000;2022-11-13T12:26:25;16.40;63.00
58993;DHT22;44782;0.000;0.000;2022-11-13T12:34:14;16.40;63.00
58993;DHT22;44782;0.000;0.000;2022-11-13T12:36:19;16.40;63.30
58993;DHT22;44782;0.000;0.000;2022-11-13T12:39:21;16.40;63.70
58993;DHT22;44782;0.000;0.000;2022-11-13T12:41:48;16.40;63.80
58993;DHT22;44782;0.000;0.000;2022-11-13T12:44:18;16.40;64.80
58993;DHT22;44782;0.000;0.000;2022-11-13T12:46:38;16.40;65.20
58993;DHT22;44782;0.000;0.000;2022-11-13T12:48:54;16.40;65.70
58993;DHT22;44782;0.000;0.000;2022-11-13T12:51:19;16.40;66.10
58993;DHT22;44782;0.000;0.000;2022-11-13T12:53:53;16.50;66.80
58993;DHT22;44782;0.000;0.000;2022-11-13T12:56:30;16.50;67.20
58993;DHT22;44782;0.000;0.000;2022-11-13T12:58:53;16.50;67.80
58993;DHT22;44782;0.000;0.000;2022-11-13T13:08:59;16.60;68.10
58993;DHT22;44782;0.000;0.000;2022-11-13T13:11:39;16.60;68.30
58993;DHT22;44782;0.000;0.000;2022-11-13T13:14:15;16.60;68.70
58993;DHT22;44782;0.000;0.000;2022-11-13T13:16:33;16.60;68.00
58993;DHT22;44782;0.000;0.000;2022-11-13T13:18:49;16.70;68.30
58993;DHT22;44782;0.000;0.000;2022-11-13T13:21:12;16.70;68.30
58993;DHT22;44782;0.000;0.000;2022-11-13T13:23:35;16.70;68.80
58993;DHT22;44782;0.000;0.000;2022-11-13T13:26:01;16.80;68.80
58993;DHT22;44782;0.000;0.000;2022-11-13T13:28:19;16.80;68.80
58993;DHT22;44782;0.000;0.000;2022-11-13T13:31:04;16.80;68.20
58993;DHT22;44782;0.000;0.000;2022-11-13T13:36:02;16.80;68.30
58993;DHT22;44782;0.000;0.000;2022-11-13T13:38:46;16.80;68.40
58993;DHT22;44782;0.000;0.000;2022-11-13T13:46:19;16.80;67.80
58993;DHT22;44782;0.000;0.000;2022-11-13T13:48:38;16.90;67.90
58993;DHT22;44782;0.000;0.000;2022-11-13T13:50:56;16.90;67.80
58993;DHT22;44782;0.000;0.000;2022-11-13T13:53:20;16.90;67.80
58993;DHT22;44782;0.000;0.000;2022-11-13T13:55:42;16.90;67.70
58993;DHT22;44782;0.000;0.000;2022-11-13T13:58:02;16.90;67.50
58993;DHT22;44782;0.000;0.000;2022-11-13T14:00:19;16.90;67.40
58993;DHT22;44782;0.000;0.000;2022-11-13T14:02:47;16.90;67.20
58993;DHT22;44782;0.000;0.000;2022-11-13T14:05:22;17.00;67.30
58993;DHT22;44782;0.000;0.000;2022-11-13T14:07:44;17.00;67.20
58993;DHT22;44782;0.000;0.000;2022-11-13T14:10:21;17.00;67.00
58993;DHT22;44782;0.000;0.000;2022-11-13T14:12:41;17.00;67.00
58993;DHT22;44782;0.000;0.000;2022-11-13T14:14:57;17.00;66.90
58993;DHT22;44782;0.000;0.000;2022-11-13T14:17:22;17.00;66.80
58993;DHT22;44782;0.000;0.000;2022-11-13T14:19:38;17.00;66.90
58993;DHT22;44782;0.000;0.000;2022-11-13T14:21:57;17.00;66.90
58993;DHT22;44782;0.000;0.000;2022-11-13T14:24:24;17.00;67.00
58993;DHT22;44782;0.000;0.000;2022-11-13T14:26:40;17.00;67.20
58993;DHT22;44782;0.000;0.000;2022-11-13T14:28:57;17.00;67.20
58993;DHT22;44782;0.000;0.000;2022-11-13T14:31:14;17.00;67.20
58993;DHT22;44782;0.000;0.000;2022-11-13T14:33:37;17.00;67.20
58993;DHT22;44782;0.000;0.000;2022-11-13T14:35:55;17.00;67.20
58993;DHT22;44782;0.000;0.000;2022-11-13T14:38:27;17.00;67.00
58993;DHT22;44782;0.000;0.000;2022-11-13T14:40:46;17.00;67.00
58993;DHT22;44782;0.000;0.000;2022-11-13T14:43:05;17.00;67.00
58993;DHT22;44782;0.000;0.000;2022-11-13T14:45:30;17.00;66.90
58993;DHT22;44782;0.000;0.000;2022-11-13T14:50:33;17.10;66.90
58993;DHT22;44782;0.000;0.000;2022-11-13T14:53:02;17.00;66.80
58993;DHT22;44782;0.000;0.000;2022-11-13T14:56:05;17.10;66.90
58993;DHT22;44782;0.000;0.000;2022-11-13T14:58:01;17.00;66.80
58993;DHT22;44782;0.000;0.000;2022-11-13T15:00:18;17.00;66.80
58993;DHT22;44782;0.000;0.000;2022-11-13T15:02:39;17.00;66.70
58993;DHT22;44782;0.000;0.000;2022-11-13T15:04:55;17.00;66.70
58993;DHT22;44782;0.000;0.000;2022-11-13T15:07:28;17.00;66.70
58993;DHT22;44782;0.000;0.000;2022-11-13T15:09:44;17.10;66.70
58993;DHT22;44782;0.000;0.000;2022-11-13T15:12:00;17.00;66.70
58993;DHT22;44782;0.000;0.000;2022-11-13T15:14:17;17.00;66.70
58993;DHT22;44782;0.000;0.000;2022-11-13T15:16:33;17.00;66.60
58993;DHT22;44782;0.000;0.000;2022-11-13T15:19:00;17.10;66.60
58993;DHT22;44782;0.000;0.000;2022-11-13T15:21:17;17.10;66.50
58993;DHT22;44782;0.000;0.000;2022-11-13T15:23:32;17.00;66.50
58993;DHT22;44782;0.000;0.000;2022-11-13T15:25:49;17.00;66.50
58993;DHT22;44782;0.000;0.000;2022-11-13T15:28:04;17.00;66.50
58993;DHT22;44782;0.000;0.000;2022-11-13T15:30:20;17.00;66.40
58993;DHT22;44782;0.000;0.000;2022-11-13T15:32:36;17.10;66.40
58993;DHT22;44782;0.000;0.000;2022-11-13T15:34:52;17.10;66.40
58993;DHT22;44782;0.000;0.000;2022-11-13T15:37:10;17.00;66.30
58993;DHT22;44782;0.000;0.000;2022-11-13T15:39:26;17.00;66.20
58993;DHT22;44782;0.000;0.000;2022-11-13T15:41:42;17.10;66.10
58993;DHT22;44782;0.000;0.000;2022-11-13T15:43:58;17.00;66.80
58993;DHT22;44782;0.000;0.000;2022-11-13T15:46:17;17.10;66.00
58993;DHT22;44782;0.000;0.000;2022-11-13T15:48:32;17.00;65.90
58993;DHT22;44782;0.000;0.000;2022-11-13T15:50:48;17.00;65.80
58993;DHT22;44782;0.000;0.000;2022-11-13T15:53:05;17.00;65.80
58993;DHT22;44782;0.000;0.000;2022-11-13T15:55:26;17.00;65.80
58993;DHT22;44782;0.000;0.000;2022-11-13T15:57:43;17.00;65.80